createdAt,value
2018-07-05T00:00:37.086Z,9.70
2018-07-05T00:01:37.033Z,9.80
2018-07-05T00:02:37.017Z,10.20
2018-07-05T00:03:37.003Z,11.00
2018-07-05T00:04:36.959Z,8.70
2018-07-05T00:05:36.950Z,8.90
2018-07-05T00:06:36.926Z,9.60
2018-07-05T00:07:36.892Z,9.70
2018-07-05T00:08:36.885Z,9.00
2018-07-05T00:09:36.858Z,9.40
2018-07-05T00:10:36.832Z,8.70
2018-07-05T00:11:36.810Z,9.30
2018-07-05T00:12:36.783Z,9.60
2018-07-05T00:13:36.764Z,9.70
2018-07-05T00:14:36.736Z,8.60
2018-07-05T00:15:36.720Z,10.40
2018-07-05T00:16:36.697Z,9.90
2018-07-05T00:17:36.675Z,11.20
2018-07-05T00:18:36.650Z,11.40
2018-07-05T00:19:36.620Z,10.90
2018-07-05T00:20:36.608Z,9.00
2018-07-05T00:21:36.588Z,8.10
2018-07-05T00:22:36.553Z,10.10
2018-07-05T00:23:36.535Z,9.50
2018-07-05T00:24:36.515Z,9.30
2018-07-05T00:25:36.489Z,9.10
2018-07-05T00:26:36.470Z,8.70
2018-07-05T00:27:36.445Z,8.50
2018-07-05T00:28:36.426Z,8.80
2018-07-05T00:29:36.406Z,9.00
2018-07-05T00:30:36.379Z,9.50
2018-07-05T00:31:36.358Z,9.50
2018-07-05T00:32:36.335Z,10.30
2018-07-05T00:33:36.310Z,12.40
2018-07-05T00:34:36.292Z,9.90
2018-07-05T00:35:36.267Z,11.60
2018-07-05T00:36:36.243Z,10.10
2018-07-05T00:37:36.217Z,9.30
2018-07-05T00:38:36.200Z,9.40
2018-07-05T00:39:36.167Z,11.10
2018-07-05T00:40:36.157Z,11.40
2018-07-05T00:41:36.130Z,10.30
2018-07-05T00:42:36.111Z,10.00
2018-07-05T00:43:36.080Z,9.10
2018-07-05T00:44:36.065Z,9.90
2018-07-05T00:45:36.037Z,11.30
2018-07-05T00:46:36.017Z,9.30
2018-07-05T00:47:35.996Z,9.50
2018-07-05T00:48:35.973Z,11.30
2018-07-05T00:49:35.948Z,8.90
2018-07-05T00:50:35.925Z,10.30
2018-07-05T00:51:35.903Z,10.10
2018-07-05T00:52:35.881Z,9.40
2018-07-05T00:53:35.857Z,11.60
2018-07-05T00:54:35.838Z,9.80
2018-07-05T00:55:35.809Z,10.00
2018-07-05T00:56:35.789Z,9.80
2018-07-05T00:57:35.763Z,9.90
2018-07-05T00:58:35.739Z,9.20
2018-07-05T00:59:35.718Z,10.10
2018-07-05T01:00:35.699Z,11.00
2018-07-05T01:01:35.674Z,9.10
2018-07-05T01:02:35.656Z,10.40
2018-07-05T01:03:35.626Z,8.70
2018-07-05T01:04:35.610Z,8.50
2018-07-05T01:05:35.583Z,8.70
2018-07-05T01:06:35.564Z,11.00
2018-07-05T01:07:35.548Z,9.10
2018-07-05T01:08:35.509Z,11.00
2018-07-05T01:09:35.497Z,9.10
2018-07-05T01:10:35.466Z,9.30
2018-07-05T01:11:35.446Z,11.10
2018-07-05T01:12:35.432Z,9.90
2018-07-05T01:13:35.411Z,10.00
2018-07-05T01:14:35.384Z,12.20
2018-07-05T01:15:35.353Z,10.50
2018-07-05T01:16:35.339Z,11.30
2018-07-05T01:17:35.313Z,10.70
2018-07-05T01:18:35.289Z,9.80
2018-07-05T01:19:35.262Z,12.20
2018-07-05T01:20:35.238Z,12.80
2018-07-05T01:21:35.221Z,12.20
2018-07-05T01:22:35.195Z,11.80
2018-07-05T01:23:35.169Z,10.70
2018-07-05T01:24:35.156Z,10.00
2018-07-05T01:25:35.135Z,9.60
2018-07-05T01:26:35.104Z,9.80
2018-07-05T01:27:35.082Z,10.90
2018-07-05T01:28:35.060Z,12.50
2018-07-05T01:29:35.041Z,10.90
2018-07-05T01:30:35.017Z,9.90
2018-07-05T01:31:34.989Z,11.50
2018-07-05T01:32:34.969Z,11.70
2018-07-05T01:33:34.939Z,10.90
2018-07-05T01:34:34.927Z,10.90
2018-07-05T01:35:34.901Z,10.30
2018-07-05T01:36:34.884Z,9.90
2018-07-05T01:37:34.852Z,11.60
2018-07-05T01:38:34.836Z,11.50
2018-07-05T01:39:34.807Z,11.00
2018-07-05T01:40:34.786Z,11.40
2018-07-05T01:41:34.762Z,12.70
2018-07-05T01:42:34.751Z,10.70
2018-07-05T01:43:34.713Z,11.50
2018-07-05T01:44:34.698Z,11.50
2018-07-05T01:45:34.666Z,11.60
2018-07-05T01:46:34.646Z,12.60
2018-07-05T01:47:34.627Z,12.40
2018-07-05T01:48:34.602Z,10.90
2018-07-05T01:49:34.586Z,12.00
2018-07-05T01:50:34.554Z,10.30
2018-07-05T01:51:34.532Z,10.30
2018-07-05T01:52:34.504Z,9.70
2018-07-05T01:53:34.485Z,11.90
2018-07-05T01:54:34.467Z,9.70
2018-07-05T01:55:34.447Z,9.30
2018-07-05T01:56:34.417Z,9.30
2018-07-05T01:57:34.394Z,9.10
2018-07-05T01:58:34.389Z,10.20
2018-07-05T01:59:34.350Z,11.70
2018-07-05T02:00:34.323Z,11.00
2018-07-05T02:01:34.306Z,12.60
2018-07-05T02:02:34.289Z,9.60
2018-07-05T02:03:34.256Z,12.60
2018-07-05T02:04:34.239Z,11.80
2018-07-05T02:05:34.209Z,12.00
2018-07-05T02:06:34.190Z,12.00
2018-07-05T02:07:34.165Z,9.90
2018-07-05T02:08:34.143Z,10.70
2018-07-05T02:09:34.122Z,10.10
2018-07-05T02:10:34.096Z,10.20
2018-07-05T02:11:34.074Z,10.90
2018-07-05T02:12:34.050Z,10.00
2018-07-05T02:13:34.031Z,9.90
2018-07-05T02:14:34.073Z,10.00
2018-07-05T02:15:33.984Z,12.00
2018-07-05T02:16:33.959Z,9.10
2018-07-05T02:17:33.943Z,8.30
2018-07-05T02:18:33.917Z,8.00
2018-07-05T02:19:33.888Z,7.90
2018-07-05T02:20:33.870Z,8.30
2018-07-05T02:21:33.841Z,8.60
2018-07-05T02:22:33.829Z,10.30
2018-07-05T02:23:33.795Z,8.40
2018-07-05T02:24:33.781Z,10.60
2018-07-05T02:25:33.758Z,8.50
2018-07-05T02:26:33.725Z,8.00
2018-07-05T02:27:33.710Z,7.40
2018-07-05T02:28:33.679Z,7.90
2018-07-05T02:29:33.656Z,8.80
2018-07-05T02:30:33.642Z,8.30
2018-07-05T02:31:33.612Z,9.30
2018-07-05T02:32:33.597Z,6.70
2018-07-05T02:33:33.564Z,8.40
2018-07-05T02:34:33.549Z,7.90
2018-07-05T02:35:33.525Z,7.60
2018-07-05T02:36:33.496Z,8.00
2018-07-05T02:37:33.480Z,7.70
2018-07-05T02:38:33.449Z,7.90
2018-07-05T02:39:33.427Z,7.50
2018-07-05T02:40:33.411Z,8.80
2018-07-05T02:41:33.378Z,9.40
2018-07-05T02:42:33.367Z,8.00
2018-07-05T02:43:33.333Z,8.00
2018-07-05T02:44:33.318Z,8.40
2018-07-05T02:45:33.294Z,9.20
2018-07-05T02:46:33.269Z,9.90
2018-07-05T02:47:33.250Z,9.60
2018-07-05T02:48:33.216Z,9.00
2018-07-05T02:49:33.203Z,7.80
2018-07-05T02:50:33.175Z,8.80
2018-07-05T02:51:33.157Z,8.90
2018-07-05T02:52:33.128Z,9.20
2018-07-05T02:53:33.103Z,8.30
2018-07-05T02:54:33.089Z,8.90
2018-07-05T02:55:33.055Z,9.00
2018-07-05T02:56:33.045Z,9.10
2018-07-05T02:57:33.037Z,8.70
2018-07-05T02:58:33.002Z,7.80
2018-07-05T02:59:32.975Z,8.30
2018-07-05T03:00:32.959Z,9.00
2018-07-05T03:01:32.922Z,8.80
2018-07-05T03:02:32.909Z,7.70
2018-07-05T03:03:32.880Z,7.50
2018-07-05T03:04:32.855Z,8.20
2018-07-05T03:05:32.835Z,8.30
2018-07-05T03:06:32.823Z,8.90
2018-07-05T03:07:32.790Z,8.40
2018-07-05T03:08:32.759Z,8.80
2018-07-05T03:09:32.741Z,10.10
2018-07-05T03:10:32.719Z,9.40
2018-07-05T03:11:32.700Z,9.30
2018-07-05T03:12:32.669Z,9.90
2018-07-05T03:13:32.754Z,9.80
2018-07-05T03:14:32.633Z,10.00
2018-07-05T03:15:32.602Z,9.80
2018-07-05T03:16:32.584Z,9.30
2018-07-05T03:17:32.561Z,9.70
2018-07-05T03:18:32.532Z,9.70
2018-07-05T03:19:32.514Z,9.60
2018-07-05T03:20:32.483Z,9.30
2018-07-05T03:21:32.461Z,9.10
2018-07-05T03:22:32.447Z,9.50
2018-07-05T03:23:32.445Z,8.90
2018-07-05T03:24:32.389Z,10.20
2018-07-05T03:25:32.375Z,8.30
2018-07-05T03:26:32.346Z,10.10
2018-07-05T03:27:32.326Z,10.90
2018-07-05T03:28:32.298Z,9.60
2018-07-05T03:29:32.287Z,8.90
2018-07-05T03:30:32.256Z,8.60
2018-07-05T03:31:32.249Z,10.70
2018-07-05T03:32:32.206Z,8.50
2018-07-05T03:33:32.186Z,9.80
2018-07-05T03:34:32.168Z,11.00
2018-07-05T03:35:32.139Z,9.20
2018-07-05T03:36:32.122Z,10.90
2018-07-05T03:37:32.097Z,9.80
2018-07-05T03:38:32.081Z,10.00
2018-07-05T03:39:32.049Z,10.50
2018-07-05T03:40:32.023Z,10.30
2018-07-05T03:41:32.001Z,10.30
2018-07-05T03:42:31.981Z,10.20
2018-07-05T03:43:31.956Z,10.50
2018-07-05T03:44:31.936Z,12.80
2018-07-05T03:45:31.907Z,10.10
2018-07-05T03:46:31.892Z,10.60
2018-07-05T03:47:31.860Z,10.20
2018-07-05T03:48:31.843Z,9.60
2018-07-05T03:49:31.821Z,10.70
2018-07-05T03:50:31.798Z,9.60
2018-07-05T03:51:31.796Z,11.90
2018-07-05T03:52:31.747Z,10.00
2018-07-05T03:53:31.726Z,11.10
2018-07-05T03:54:31.711Z,10.70
2018-07-05T03:55:31.680Z,11.10
2018-07-05T03:56:31.659Z,10.50
2018-07-05T03:57:31.635Z,11.40
2018-07-05T03:58:31.608Z,8.70
2018-07-05T03:59:31.587Z,11.50
2018-07-05T04:00:31.561Z,9.30
2018-07-05T04:01:31.548Z,11.70
2018-07-05T04:02:31.546Z,9.30
2018-07-05T04:03:31.493Z,9.90
2018-07-05T04:04:31.513Z,9.50
2018-07-05T04:05:31.453Z,11.00
2018-07-05T04:06:31.424Z,9.30
2018-07-05T04:07:31.399Z,11.20
2018-07-05T04:08:31.385Z,9.50
2018-07-05T04:09:31.359Z,14.20
2018-07-05T04:10:31.338Z,12.50
2018-07-05T04:11:31.307Z,9.80
2018-07-05T04:12:31.293Z,9.40
2018-07-05T04:13:31.263Z,10.00
2018-07-05T04:14:31.243Z,11.00
2018-07-05T04:15:31.223Z,10.80
2018-07-05T04:16:31.196Z,9.70
2018-07-05T04:17:31.170Z,9.20
2018-07-05T04:18:31.153Z,9.30
2018-07-05T04:19:31.125Z,9.00
2018-07-05T04:20:31.107Z,10.50
2018-07-05T04:21:31.079Z,9.20
2018-07-05T04:22:31.060Z,9.60
2018-07-05T04:23:31.037Z,8.90
2018-07-05T04:24:31.013Z,10.90
2018-07-05T04:25:30.987Z,11.20
2018-07-05T04:26:30.970Z,9.80
2018-07-05T04:27:30.953Z,11.20
2018-07-05T04:28:30.917Z,9.80
2018-07-05T04:29:30.891Z,12.20
2018-07-05T04:30:30.872Z,11.00
2018-07-05T04:31:30.848Z,9.30
2018-07-05T04:32:30.830Z,9.40
2018-07-05T04:33:30.806Z,11.50
2018-07-05T04:34:30.778Z,12.20
2018-07-05T04:35:30.761Z,11.10
2018-07-05T04:36:30.728Z,11.10
2018-07-05T04:37:30.708Z,12.40
2018-07-05T04:38:30.692Z,12.90
2018-07-05T04:39:30.714Z,12.90
2018-07-05T04:40:30.644Z,11.30
2018-07-05T04:41:30.618Z,14.50
2018-07-05T04:42:30.654Z,10.60
2018-07-05T04:43:30.572Z,9.60
2018-07-05T04:44:30.571Z,11.20
2018-07-05T04:45:30.528Z,12.10
2018-07-05T04:46:30.507Z,10.20
2018-07-05T04:47:30.480Z,10.30
2018-07-05T04:48:30.453Z,10.70
2018-07-05T04:49:30.434Z,12.30
2018-07-05T04:50:30.416Z,11.30
2018-07-05T04:51:30.394Z,11.10
2018-07-05T04:52:30.366Z,9.10
2018-07-05T04:53:30.368Z,11.60
2018-07-05T04:54:30.320Z,10.00
2018-07-05T04:55:30.348Z,12.20
2018-07-05T04:56:30.277Z,10.20
2018-07-05T04:57:30.254Z,10.40
2018-07-05T04:58:30.229Z,13.40
2018-07-05T04:59:30.208Z,10.90
2018-07-05T05:00:30.221Z,13.20
2018-07-05T05:01:30.155Z,11.80
2018-07-05T05:02:30.228Z,12.20
2018-07-05T05:03:30.109Z,11.00
2018-07-05T05:04:30.089Z,11.00
2018-07-05T05:05:30.076Z,11.30
2018-07-05T05:06:30.043Z,10.50
2018-07-05T05:07:30.026Z,10.80
2018-07-05T05:08:29.999Z,11.00
2018-07-05T05:09:29.982Z,11.60
2018-07-05T05:10:29.957Z,10.70
2018-07-05T05:11:29.928Z,10.90
2018-07-05T05:12:29.910Z,10.80
2018-07-05T05:13:29.881Z,14.70
2018-07-05T05:14:29.866Z,14.70
2018-07-05T05:15:29.835Z,11.40
2018-07-05T05:16:29.820Z,11.60
2018-07-05T05:17:29.791Z,10.50
2018-07-05T05:18:29.768Z,13.90
2018-07-05T05:19:29.750Z,10.60
2018-07-05T05:20:29.726Z,12.90
2018-07-05T05:21:29.698Z,13.00
2018-07-05T05:22:29.684Z,13.30
2018-07-05T05:23:29.655Z,13.20
2018-07-05T05:24:29.635Z,12.50
2018-07-05T05:25:29.607Z,13.70
2018-07-05T05:26:29.593Z,14.70
2018-07-05T05:27:29.562Z,13.10
2018-07-05T05:28:29.544Z,12.60
2018-07-05T05:29:29.523Z,13.30
2018-07-05T05:30:29.493Z,12.40
2018-07-05T05:31:29.472Z,13.80
2018-07-05T05:32:29.450Z,13.30
2018-07-05T05:33:29.428Z,11.50
2018-07-05T05:34:29.407Z,12.20
2018-07-05T05:35:29.384Z,12.60
2018-07-05T05:36:29.362Z,11.50
2018-07-05T05:37:29.341Z,13.20
2018-07-05T05:38:29.309Z,15.80
2018-07-05T05:39:29.293Z,12.80
2018-07-05T05:40:29.262Z,12.80
2018-07-05T05:41:29.239Z,10.80
2018-07-05T05:42:29.231Z,14.50
2018-07-05T05:43:29.193Z,13.00
2018-07-05T05:44:29.181Z,10.50
2018-07-05T05:45:29.154Z,14.10
2018-07-05T05:46:29.126Z,14.60
2018-07-05T05:47:29.105Z,13.90
2018-07-05T05:48:29.080Z,12.30
2018-07-05T05:49:29.059Z,13.80
2018-07-05T05:50:29.037Z,13.30
2018-07-05T05:51:29.020Z,12.00
2018-07-05T05:52:29.002Z,12.00
2018-07-05T05:53:28.970Z,13.00
2018-07-05T05:54:28.952Z,14.40
2018-07-05T05:55:28.923Z,15.00
2018-07-05T05:56:28.900Z,15.20
2018-07-05T05:57:28.883Z,16.60
2018-07-05T05:58:28.846Z,12.30
2018-07-05T05:59:28.832Z,11.70
2018-07-05T06:00:28.808Z,12.60
2018-07-05T06:01:28.793Z,14.40
2018-07-05T06:02:28.765Z,14.00
2018-07-05T06:03:28.744Z,15.40
2018-07-05T06:04:28.714Z,13.50
2018-07-05T06:05:28.696Z,15.60
2018-07-05T06:06:28.672Z,16.50
2018-07-05T06:07:28.651Z,13.30
2018-07-05T06:08:28.629Z,14.00
2018-07-05T06:09:28.603Z,18.30
2018-07-05T06:10:28.581Z,15.20
2018-07-05T06:11:28.560Z,13.70
2018-07-05T06:12:28.534Z,15.60
2018-07-05T06:13:28.509Z,14.30
2018-07-05T06:14:28.492Z,12.70
2018-07-05T06:15:28.474Z,11.60
2018-07-05T06:16:28.442Z,15.50
2018-07-05T06:17:28.423Z,14.20
2018-07-05T06:18:28.395Z,14.30
2018-07-05T06:19:29.002Z,14.10
2018-07-05T06:20:28.345Z,17.60
2018-07-05T06:21:28.331Z,16.70
2018-07-05T06:22:28.307Z,15.20
2018-07-05T06:23:28.278Z,16.20
2018-07-05T06:24:28.263Z,16.70
2018-07-05T06:25:28.275Z,20.30
2018-07-05T06:26:28.214Z,25.50
2018-07-05T06:27:28.189Z,21.10
2018-07-05T06:28:28.167Z,22.20
2018-07-05T06:29:28.145Z,22.00
2018-07-05T06:30:28.118Z,28.50
2018-07-05T06:31:28.097Z,35.90
2018-07-05T06:32:28.071Z,39.20
2018-07-05T06:33:28.045Z,45.20
